sensor_id;sensor_type;location;lat;lon;timestamp;pressure;altitude;pressure_sealevel;temperature;humidity
43155;BME280;34212;51.018;13.586;2023-03-19T00:05:02;97661.56;;;9.59;76.66
43155;BME280;34212;51.018;13.586;2023-03-19T00:10:04;97664.91;;;9.61;77.23
43155;BME280;34212;51.018;13.586;2023-03-19T00:15:06;97661.22;;;9.62;76.39
43155;BME280;34212;51.018;13.586;2023-03-19T00:20:10;97664.91;;;9.61;76.84
43155;BME280;34212;51.018;13.586;2023-03-19T00:25:12;97667.09;;;9.58;77.38
43155;BME280;34212;51.018;13.586;2023-03-19T00:30:15;97670.94;;;9.55;77.15
43155;BME280;34212;51.018;13.586;2023-03-19T00:35:16;97657.31;;;9.50;77.11
43155;BME280;34212;51.018;13.586;2023-03-19T00:40:18;97654.38;;;9.45;76.58
43155;BME280;34212;51.018;13.586;2023-03-19T00:45:19;97665.72;;;9.39;77.17
43155;BME280;34212;51.018;13.586;2023-03-19T00:50:24;97663.09;;;9.31;76.80
43155;BME280;34212;51.018;13.586;2023-03-19T00:55:25;97660.50;;;9.22;76.89
43155;BME280;34212;51.018;13.586;2023-03-19T01:00:27;97655.88;;;9.16;77.09
43155;BME280;34212;51.018;13.586;2023-03-19T01:05:29;97658.88;;;9.13;77.36
43155;BME280;34212;51.018;13.586;2023-03-19T01:10:32;97664.00;;;9.15;77.54
43155;BME280;34212;51.018;13.586;2023-03-19T01:15:41;97659.50;;;9.15;77.24
43155;BME280;34212;51.018;13.586;2023-03-19T01:20:43;97652.06;;;9.11;76.74
43155;BME280;34212;51.018;13.586;2023-03-19T01:25:45;97653.44;;;9.07;76.61
43155;BME280;34212;51.018;13.586;2023-03-19T01:30:47;97646.63;;;9.04;77.01
43155;BME280;34212;51.018;13.586;2023-03-19T01:36:15;97644.94;;;9.03;76.18
43155;BME280;34212;51.018;13.586;2023-03-19T01:41:37;97642.47;;;9.01;77.37
43155;BME280;34212;51.018;13.586;2023-03-19T01:47:18;97641.66;;;9.01;76.64
43155;BME280;34212;51.018;13.586;2023-03-19T01:52:43;97638.81;;;9.02;76.71
43155;BME280;34212;51.018;13.586;2023-03-19T01:57:55;97644.59;;;9.06;77.02
43155;BME280;34212;51.018;13.586;2023-03-19T02:03:24;97643.28;;;9.10;76.58
43155;BME280;34212;51.018;13.586;2023-03-19T02:08:48;97649.22;;;9.12;76.77
43155;BME280;34212;51.018;13.586;2023-03-19T02:13:51;97635.75;;;9.14;76.94
43155;BME280;34212;51.018;13.586;2023-03-19T02:18:53;97630.91;;;9.17;76.17
43155;BME280;34212;51.018;13.586;2023-03-19T02:24:08;97635.69;;;9.22;76.20
43155;BME280;34212;51.018;13.586;2023-03-19T02:29:34;97638.53;;;9.20;76.58
43155;BME280;34212;51.018;13.586;2023-03-19T02:34:40;97636.91;;;9.19;76.21
43155;BME280;34212;51.018;13.586;2023-03-19T02:44:48;97639.59;;;9.11;76.05
43155;BME280;34212;51.018;13.586;2023-03-19T02:49:50;97649.28;;;9.04;76.69
43155;BME280;34212;51.018;13.586;2023-03-19T02:54:51;97652.31;;;8.93;76.04
43155;BME280;34212;51.018;13.586;2023-03-19T02:59:53;97655.66;;;8.87;76.10
43155;BME280;34212;51.018;13.586;2023-03-19T03:04:55;97651.03;;;8.81;77.17
43155;BME280;34212;51.018;13.586;2023-03-19T03:09:58;97657.03;;;8.74;76.78
43155;BME280;34212;51.018;13.586;2023-03-19T03:15:00;97668.69;;;8.73;77.00
43155;BME280;34212;51.018;13.586;2023-03-19T03:20:04;97653.91;;;8.71;76.29
43155;BME280;34212;51.018;13.586;2023-03-19T03:25:06;97661.06;;;8.70;76.72
43155;BME280;34212;51.018;13.586;2023-03-19T03:30:10;97664.38;;;8.72;76.93
43155;BME280;34212;51.018;13.586;2023-03-19T03:35:12;97658.88;;;8.74;77.14
43155;BME280;34212;51.018;13.586;2023-03-19T03:40:16;97652.38;;;8.76;76.38
43155;BME280;34212;51.018;13.586;2023-03-19T03:45:18;97663.03;;;8.76;76.90
43155;BME280;34212;51.018;13.586;2023-03-19T03:50:20;97659.34;;;8.77;76.83
43155;BME280;34212;51.018;13.586;2023-03-19T03:55:25;97665.00;;;8.74;76.70
43155;BME280;34212;51.018;13.586;2023-03-19T04:00:28;97657.03;;;8.74;76.78
43155;BME280;34212;51.018;13.586;2023-03-19T04:05:30;97656.06;;;8.75;76.49
43155;BME280;34212;51.018;13.586;2023-03-19T04:10:32;97652.53;;;8.75;76.42
43155;BME280;34212;51.018;13.586;2023-03-19T04:15:36;97661.72;;;8.72;76.19
43155;BME280;34212;51.018;13.586;2023-03-19T04:20:39;97661.06;;;8.70;76.68
43155;BME280;34212;51.018;13.586;2023-03-19T04:25:41;97643.94;;;8.65;76.53
43155;BME280;34212;51.018;13.586;2023-03-19T04:30:43;97655.13;;;8.60;75.98
43155;BME280;34212;51.018;13.586;2023-03-19T04:35:45;97654.78;;;8.55;77.20
43155;BME280;34212;51.018;13.586;2023-03-19T04:40:47;97666.44;;;8.46;77.04
43155;BME280;34212;51.018;13.586;2023-03-19T04:45:49;97663.75;;;8.38;77.33
43155;BME280;34212;51.018;13.586;2023-03-19T04:50:51;97661.78;;;8.31;76.92
43155;BME280;34212;51.018;13.586;2023-03-19T04:55:57;97660.97;;;8.23;76.48
43155;BME280;34212;51.018;13.586;2023-03-19T05:01:00;97656.16;;;8.18;76.96
43155;BME280;34212;51.018;13.586;2023-03-19T05:06:22;97662.97;;;8.13;77.48
43155;BME280;34212;51.018;13.586;2023-03-19T05:11:24;97662.47;;;8.09;76.70
43155;BME280;34212;51.018;13.586;2023-03-19T05:16:33;97658.31;;;8.06;76.63
43155;BME280;34212;51.018;13.586;2023-03-19T05:21:36;97662.50;;;8.01;77.67
43155;BME280;34212;51.018;13.586;2023-03-19T05:26:38;97660.50;;;7.95;76.80
43155;BME280;34212;51.018;13.586;2023-03-19T05:31:51;97659.84;;;7.93;76.96
43155;BME280;34212;51.018;13.586;2023-03-19T05:36:55;97669.78;;;7.91;77.07
43155;BME280;34212;51.018;13.586;2023-03-19T05:41:57;97671.13;;;7.95;77.82
43155;BME280;34212;51.018;13.586;2023-03-19T05:47:02;97674.44;;;7.97;77.33
43155;BME280;34212;51.018;13.586;2023-03-19T05:52:08;97678.09;;;7.96;77.48
43155;BME280;34212;51.018;13.586;2023-03-19T05:57:12;97686.72;;;7.98;77.85
43155;BME280;34212;51.018;13.586;2023-03-19T06:02:22;97676.09;;;7.98;78.04
43155;BME280;34212;51.018;13.586;2023-03-19T06:07:30;97681.25;;;7.99;77.71
43155;BME280;34212;51.018;13.586;2023-03-19T06:12:34;97690.03;;;8.00;77.67
43155;BME280;34212;51.018;13.586;2023-03-19T06:18:02;97692.03;;;7.98;77.62
43155;BME280;34212;51.018;13.586;2023-03-19T06:23:04;97689.38;;;7.98;78.29
43155;BME280;34212;51.018;13.586;2023-03-19T06:28:06;97691.72;;;8.01;78.16
43155;BME280;34212;51.018;13.586;2023-03-19T06:33:12;97688.72;;;8.04;77.80
43155;BME280;34212;51.018;13.586;2023-03-19T06:38:14;97688.22;;;8.08;78.37
43155;BME280;34212;51.018;13.586;2023-03-19T06:43:16;97684.72;;;8.16;78.15
43155;BME280;34212;51.018;13.586;2023-03-19T06:48:18;97692.34;;;8.27;78.24
43155;BME280;34212;51.018;13.586;2023-03-19T06:53:19;97696.66;;;8.37;78.29
43155;BME280;34212;51.018;13.586;2023-03-19T06:58:21;97700.16;;;8.45;78.08
43155;BME280;34212;51.018;13.586;2023-03-19T07:03:23;97704.59;;;8.61;78.44
43155;BME280;34212;51.018;13.586;2023-03-19T07:08:24;97710.22;;;8.74;78.39
43155;BME280;34212;51.018;13.586;2023-03-19T07:13:29;97716.00;;;8.86;78.03
43155;BME280;34212;51.018;13.586;2023-03-19T07:18:31;97722.09;;;9.03;78.57
43155;BME280;34212;51.018;13.586;2023-03-19T07:23:33;97722.69;;;9.21;79.03
43155;BME280;34212;51.018;13.586;2023-03-19T07:28:34;97724.28;;;9.39;78.74
43155;BME280;34212;51.018;13.586;2023-03-19T07:33:36;97726.84;;;9.55;78.88
43155;BME280;34212;51.018;13.586;2023-03-19T07:38:37;97729.03;;;9.75;79.15
43155;BME280;34212;51.018;13.586;2023-03-19T07:43:39;97727.59;;;9.95;78.78
43155;BME280;34212;51.018;13.586;2023-03-19T07:48:40;97732.72;;;10.20;78.97
43155;BME280;34212;51.018;13.586;2023-03-19T07:53:42;97723.59;;;10.37;78.78
43155;BME280;34212;51.018;13.586;2023-03-19T07:58:43;97719.41;;;10.57;78.32
43155;BME280;34212;51.018;13.586;2023-03-19T08:03:45;97722.94;;;10.73;77.99
43155;BME280;34212;51.018;13.586;2023-03-19T08:08:48;97724.75;;;10.87;78.35
43155;BME280;34212;51.018;13.586;2023-03-19T08:13:50;97734.81;;;11.00;77.83
43155;BME280;34212;51.018;13.586;2023-03-19T08:18:51;97741.34;;;11.12;77.65
43155;BME280;34212;51.018;13.586;2023-03-19T08:23:53;97744.63;;;11.29;77.38
43155;BME280;34212;51.018;13.586;2023-03-19T08:28:54;97732.94;;;11.45;77.41
43155;BME280;34212;51.018;13.586;2023-03-19T08:33:56;97737.59;;;11.57;77.15
43155;BME280;34212;51.018;13.586;2023-03-19T08:39:00;97740.78;;;11.68;76.69
43155;BME280;34212;51.018;13.586;2023-03-19T08:44:02;97741.50;;;11.76;76.61
43155;BME280;34212;51.018;13.586;2023-03-19T08:49:03;97752.94;;;11.85;76.72
43155;BME280;34212;51.018;13.586;2023-03-19T08:54:05;97749.13;;;11.94;76.44
43155;BME280;34212;51.018;13.586;2023-03-19T08:59:06;97747.59;;;12.07;76.30
43155;BME280;34212;51.018;13.586;2023-03-19T09:04:08;97749.53;;;12.13;75.87
43155;BME280;34212;51.018;13.586;2023-03-19T09:09:09;97748.94;;;12.17;75.26
43155;BME280;34212;51.018;13.586;2023-03-19T09:14:11;97753.91;;;12.20;75.40
43155;BME280;34212;51.018;13.586;2023-03-19T09:19:13;97752.69;;;12.23;75.59
43155;BME280;34212;51.018;13.586;2023-03-19T09:24:18;97758.03;;;12.23;75.25
43155;BME280;34212;51.018;13.586;2023-03-19T09:29:19;97761.34;;;12.25;75.52
43155;BME280;34212;51.018;13.586;2023-03-19T09:34:21;97761.59;;;12.30;75.19
43155;BME280;34212;51.018;13.586;2023-03-19T09:39:22;97761.84;;;12.35;75.41
43155;BME280;34212;51.018;13.586;2023-03-19T09:44:31;97751.03;;;12.43;74.77
43155;BME280;34212;51.018;13.586;2023-03-19T09:49:41;97743.50;;;12.54;75.04
43155;BME280;34212;51.018;13.586;2023-03-19T09:54:46;97745.66;;;12.65;75.18
43155;BME280;34212;51.018;13.586;2023-03-19T09:59:48;97741.63;;;12.82;75.44
43155;BME280;34212;51.018;13.586;2023-03-19T10:10:40;97728.63;;;13.49;74.38
43155;BME280;34212;51.018;13.586;2023-03-19T10:15:44;97737.22;;;13.85;74.79
43155;BME280;34212;51.018;13.586;2023-03-19T10:21:10;97741.00;;;14.24;73.33
43155;BME280;34212;51.018;13.586;2023-03-19T10:26:18;97735.66;;;14.58;72.87
43155;BME280;34212;51.018;13.586;2023-03-19T10:31:28;97733.19;;;14.89;72.75
43155;BME280;34212;51.018;13.586;2023-03-19T10:36:36;97735.19;;;15.20;73.15
43155;BME280;34212;51.018;13.586;2023-03-19T10:46:40;97740.00;;;15.57;72.59
43155;BME280;34212;51.018;13.586;2023-03-19T10:51:44;97732.13;;;15.62;71.80
43155;BME280;34212;51.018;13.586;2023-03-19T10:56:47;97733.56;;;15.64;72.00
43155;BME280;34212;51.018;13.586;2023-03-19T11:01:48;97734.38;;;15.65;74.75
43155;BME280;34212;51.018;13.586;2023-03-19T11:06:52;97728.63;;;15.68;73.46
43155;BME280;34212;51.018;13.586;2023-03-19T11:11:57;97734.56;;;15.77;72.36
43155;BME280;34212;51.018;13.586;2023-03-19T11:17:16;97745.69;;;15.87;72.93
43155;BME280;34212;51.018;13.586;2023-03-19T11:27:31;97726.97;;;16.05;72.75
43155;BME280;34212;51.018;13.586;2023-03-19T11:37:57;97726.44;;;16.22;72.00
43155;BME280;34212;51.018;13.586;2023-03-19T11:43:17;97715.13;;;16.38;70.98
43155;BME280;34212;51.018;13.586;2023-03-19T12:10:53;97714.63;;;16.98;68.88
43155;BME280;34212;51.018;13.586;2023-03-19T12:32:03;97716.59;;;17.27;68.10
43155;BME280;34212;51.018;13.586;2023-03-19T12:37:18;97714.50;;;17.48;66.44
43155;BME280;34212;51.018;13.586;2023-03-19T12:42:36;97714.91;;;17.63;66.93
43155;BME280;34212;51.018;13.586;2023-03-19T12:47:40;97707.31;;;17.72;66.65
43155;BME280;34212;51.018;13.586;2023-03-19T12:52:47;97712.03;;;17.76;65.88
43155;BME280;34212;51.018;13.586;2023-03-19T12:57:53;97713.25;;;17.81;66.04
43155;BME280;34212;51.018;13.586;2023-03-19T13:03:04;97715.75;;;17.94;65.79
43155;BME280;34212;51.018;13.586;2023-03-19T13:08:15;97712.50;;;18.04;69.38
43155;BME280;34212;51.018;13.586;2023-03-19T13:13:47;97725.88;;;17.98;67.11
43155;BME280;34212;51.018;13.586;2023-03-19T13:19:01;97727.25;;;17.89;67.02
43155;BME280;34212;51.018;13.586;2023-03-19T13:24:26;97716.00;;;17.74;65.45
43155;BME280;34212;51.018;13.586;2023-03-19T13:29:33;97723.91;;;17.57;66.17
43155;BME280;34212;51.018;13.586;2023-03-19T13:34:37;97721.16;;;17.45;65.94
43155;BME280;34212;51.018;13.586;2023-03-19T13:39:38;97723.84;;;17.27;66.40
43155;BME280;34212;51.018;13.586;2023-03-19T13:44:53;97726.09;;;17.12;64.95
43155;BME280;34212;51.018;13.586;2023-03-19T13:55:29;97717.06;;;16.56;62.42
43155;BME280;34212;51.018;13.586;2023-03-19T14:05:46;97729.25;;;16.33;61.84
43155;BME280;34212;51.018;13.586;2023-03-19T14:10:51;97729.44;;;16.32;61.56
43155;BME280;34212;51.018;13.586;2023-03-19T14:16:02;97732.38;;;16.30;61.30
43155;BME280;34212;51.018;13.586;2023-03-19T14:21:08;97728.03;;;16.29;61.74
43155;BME280;34212;51.018;13.586;2023-03-19T14:26:24;97727.19;;;16.35;61.77
43155;BME280;34212;51.018;13.586;2023-03-19T14:31:30;97727.38;;;16.34;62.08
43155;BME280;34212;51.018;13.586;2023-03-19T14:36:37;97718.47;;;16.33;61.39
43155;BME280;34212;51.018;13.586;2023-03-19T14:41:45;97714.34;;;16.31;61.66
43155;BME280;34212;51.018;13.586;2023-03-19T14:57:31;97721.47;;;16.19;62.69
43155;BME280;34212;51.018;13.586;2023-03-19T15:02:48;97731.91;;;16.08;63.10
43155;BME280;34212;51.018;13.586;2023-03-19T15:07:53;97737.66;;;15.80;63.38
43155;BME280;34212;51.018;13.586;2023-03-19T15:13:20;97734.63;;;15.57;64.51
43155;BME280;34212;51.018;13.586;2023-03-19T15:18:26;97744.59;;;15.43;65.98
43155;BME280;34212;51.018;13.586;2023-03-19T15:23:28;97739.72;;;15.27;67.17
43155;BME280;34212;51.018;13.586;2023-03-19T15:28:33;97737.84;;;15.14;68.50
43155;BME280;34212;51.018;13.586;2023-03-19T15:33:45;97747.00;;;14.99;68.67
43155;BME280;34212;51.018;13.586;2023-03-19T15:38:52;97748.44;;;14.82;68.88
43155;BME280;34212;51.018;13.586;2023-03-19T15:43:55;97757.75;;;14.66;69.80
43155;BME280;34212;51.018;13.586;2023-03-19T15:49:13;97756.31;;;14.57;69.95
43155;BME280;34212;51.018;13.586;2023-03-19T15:54:17;97768.66;;;14.45;71.08
43155;BME280;34212;51.018;13.586;2023-03-19T15:59:22;97762.25;;;14.26;72.44
43155;BME280;34212;51.018;13.586;2023-03-19T16:04:27;97769.84;;;13.96;73.28
43155;BME280;34212;51.018;13.586;2023-03-19T16:09:32;97777.53;;;13.64;75.29
43155;BME280;34212;51.018;13.586;2023-03-19T16:14:41;97772.06;;;13.37;76.61
43155;BME280;34212;51.018;13.586;2023-03-19T16:24:51;97791.00;;;13.08;78.67
43155;BME280;34212;51.018;13.586;2023-03-19T16:29:58;97792.56;;;12.95;79.21
43155;BME280;34212;51.018;13.586;2023-03-19T16:35:11;97802.81;;;12.85;79.88
43155;BME280;34212;51.018;13.586;2023-03-19T16:50:27;97814.31;;;12.58;80.91
43155;BME280;34212;51.018;13.586;2023-03-19T16:55:34;97817.13;;;12.50;81.49
43155;BME280;34212;51.018;13.586;2023-03-19T17:00:35;97821.19;;;12.45;81.74
43155;BME280;34212;51.018;13.586;2023-03-19T17:05:37;97825.72;;;12.45;81.87
43155;BME280;34212;51.018;13.586;2023-03-19T17:10:42;97822.88;;;12.46;81.94
43155;BME280;34212;51.018;13.586;2023-03-19T17:15:47;97818.72;;;12.44;82.09
43155;BME280;34212;51.018;13.586;2023-03-19T17:20:52;97828.78;;;12.42;82.27
43155;BME280;34212;51.018;13.586;2023-03-19T17:25:56;97838.00;;;12.39;82.92
43155;BME280;34212;51.018;13.586;2023-03-19T17:30:57;97840.22;;;12.36;83.07
43155;BME280;34212;51.018;13.586;2023-03-19T17:35:59;97835.47;;;12.31;83.10
43155;BME280;34212;51.018;13.586;2023-03-19T17:41:01;97846.53;;;12.28;83.51
43155;BME280;34212;51.018;13.586;2023-03-19T17:46:03;97841.50;;;12.18;83.67
43155;BME280;34212;51.018;13.586;2023-03-19T17:51:04;97840.88;;;12.01;84.43
43155;BME280;34212;51.018;13.586;2023-03-19T17:56:09;97841.38;;;11.90;85.24
43155;BME280;34212;51.018;13.586;2023-03-19T18:01:22;97839.59;;;11.83;85.82
43155;BME280;34212;51.018;13.586;2023-03-19T18:06:30;97852.16;;;11.82;86.36
43155;BME280;34212;51.018;13.586;2023-03-19T18:11:32;97844.06;;;11.90;85.78
43155;BME280;34212;51.018;13.586;2023-03-19T18:16:34;97839.78;;;11.96;85.74
43155;BME280;34212;51.018;13.586;2023-03-19T18:21:36;97848.47;;;11.98;85.49
43155;BME280;34212;51.018;13.586;2023-03-19T18:26:37;97853.16;;;11.96;85.93
43155;BME280;34212;51.018;13.586;2023-03-19T18:31:39;97846.59;;;11.98;85.90
43155;BME280;34212;51.018;13.586;2023-03-19T18:36:42;97855.66;;;11.97;85.99
43155;BME280;34212;51.018;13.586;2023-03-19T18:41:44;97853.34;;;11.94;86.09
43155;BME280;34212;51.018;13.586;2023-03-19T18:46:45;97851.72;;;11.93;86.37
43155;BME280;34212;51.018;13.586;2023-03-19T18:51:48;97852.97;;;11.97;86.31
43155;BME280;34212;51.018;13.586;2023-03-19T18:57:03;97853.63;;;11.99;86.10
43155;BME280;34212;51.018;13.586;2023-03-19T19:02:29;97853.34;;;11.94;86.43
43155;BME280;34212;51.018;13.586;2023-03-19T19:07:31;97859.97;;;11.84;86.97
43155;BME280;34212;51.018;13.586;2023-03-19T19:12:33;97853.66;;;11.85;86.85
43155;BME280;34212;51.018;13.586;2023-03-19T19:17:35;97866.25;;;11.91;86.78
43155;BME280;34212;51.018;13.586;2023-03-19T19:22:37;97869.38;;;11.94;86.90
43155;BME280;34212;51.018;13.586;2023-03-19T19:27:38;97876.00;;;11.98;86.81
43155;BME280;34212;51.018;13.586;2023-03-19T19:32:40;97874.38;;;11.97;86.71
43155;BME280;34212;51.018;13.586;2023-03-19T19:37:42;97878.69;;;11.98;86.84
43155;BME280;34212;51.018;13.586;2023-03-19T19:42:44;97870.03;;;11.96;86.80
43155;BME280;34212;51.018;13.586;2023-03-19T19:47:46;97881.09;;;11.93;86.87
43155;BME280;34212;51.018;13.586;2023-03-19T19:52:49;97882.75;;;11.94;86.90
43155;BME280;34212;51.018;13.586;2023-03-19T19:57:52;97874.72;;;11.94;86.59
43155;BME280;34212;51.018;13.586;2023-03-19T20:02:56;97878.44;;;11.93;86.84
43155;BME280;34212;51.018;13.586;2023-03-19T20:08:00;97876.75;;;11.92;86.57
43155;BME280;34212;51.018;13.586;2023-03-19T20:13:02;97883.50;;;11.88;86.67
43155;BME280;34212;51.018;13.586;2023-03-19T20:18:04;97882.19;;;11.84;86.83
43155;BME280;34212;51.018;13.586;2023-03-19T20:23:06;97892.59;;;11.79;86.93
43155;BME280;34212;51.018;13.586;2023-03-19T20:28:14;97879.97;;;11.73;86.73
43155;BME280;34212;51.018;13.586;2023-03-19T20:33:19;97891.84;;;11.70;87.30
43155;BME280;34212;51.018;13.586;2023-03-19T20:38:21;97891.41;;;11.67;87.03
43155;BME280;34212;51.018;13.586;2023-03-19T20:43:28;97887.63;;;11.61;86.83
43155;BME280;34212;51.018;13.586;2023-03-19T20:48:31;97891.22;;;11.53;86.79
43155;BME280;34212;51.018;13.586;2023-03-19T20:53:33;97893.34;;;11.43;86.37
43155;BME280;34212;51.018;13.586;2023-03-19T20:58:35;97894.25;;;11.36;86.59
43155;BME280;34212;51.018;13.586;2023-03-19T21:03:37;97882.91;;;11.33;86.70
43155;BME280;34212;51.018;13.586;2023-03-19T21:08:43;97888.44;;;11.32;86.88
43155;BME280;34212;51.018;13.586;2023-03-19T21:13:51;97885.47;;;11.27;87.07
43155;BME280;34212;51.018;13.586;2023-03-19T21:18:53;97889.25;;;11.18;86.48
43155;BME280;34212;51.018;13.586;2023-03-19T21:24:01;97891.34;;;11.07;86.46
43155;BME280;34212;51.018;13.586;2023-03-19T21:29:07;97882.09;;;10.95;85.91
43155;BME280;34212;51.018;13.586;2023-03-19T21:34:13;97877.19;;;10.84;85.80
43155;BME280;34212;51.018;13.586;2023-03-19T21:39:14;97892.00;;;10.72;86.28
43155;BME280;34212;51.018;13.586;2023-03-19T21:44:19;97880.34;;;10.64;86.13
43155;BME280;34212;51.018;13.586;2023-03-19T21:49:22;97886.50;;;10.65;87.18
43155;BME280;34212;51.018;13.586;2023-03-19T21:54:23;97891.50;;;10.68;86.87
43155;BME280;34212;51.018;13.586;2023-03-19T21:59:28;97889.50;;;10.70;87.26
43155;BME280;34212;51.018;13.586;2023-03-19T22:04:32;97889.97;;;10.74;87.34
43155;BME280;34212;51.018;13.586;2023-03-19T22:09:34;97888.31;;;10.73;87.34
43155;BME280;34212;51.018;13.586;2023-03-19T22:14:36;97884.16;;;10.70;87.97
43155;BME280;34212;51.018;13.586;2023-03-19T22:19:38;97890.97;;;10.73;87.69
43155;BME280;34212;51.018;13.586;2023-03-19T22:24:40;97889.59;;;10.77;87.94
43155;BME280;34212;51.018;13.586;2023-03-19T22:29:42;97887.88;;;10.84;87.94
43155;BME280;34212;51.018;13.586;2023-03-19T22:34:44;97885.69;;;10.88;88.13
43155;BME280;34212;51.018;13.586;2023-03-19T22:39:46;97898.47;;;10.92;87.72
43155;BME280;34212;51.018;13.586;2023-03-19T22:44:48;97889.34;;;10.86;87.69
43155;BME280;34212;51.018;13.586;2023-03-19T22:49:49;97896.22;;;10.81;87.76
43155;BME280;34212;51.018;13.586;2023-03-19T22:54:51;97900.47;;;10.75;87.77
43155;BME280;34212;51.018;13.586;2023-03-19T22:59:53;97886.88;;;10.62;87.18
43155;BME280;34212;51.018;13.586;2023-03-19T23:04:55;97896.38;;;10.42;87.01
43155;BME280;34212;51.018;13.586;2023-03-19T23:09:57;97888.94;;;10.21;87.25
43155;BME280;34212;51.018;13.586;2023-03-19T23:14:58;97885.56;;;10.04;87.32
43155;BME280;34212;51.018;13.586;2023-03-19T23:20:05;97875.59;;;9.98;87.48
43155;BME280;34212;51.018;13.586;2023-03-19T23:25:13;97880.34;;;10.10;87.90
43155;BME280;34212;51.018;13.586;2023-03-19T23:30:21;97884.09;;;10.24;87.89
43155;BME280;34212;51.018;13.586;2023-03-19T23:35:25;97880.06;;;10.36;87.42
43155;BME280;34212;51.018;13.586;2023-03-19T23:40:29;97882.22;;;10.41;87.29
43155;BME280;34212;51.018;13.586;2023-03-19T23:45:35;97877.84;;;10.40;87.07
43155;BME280;34212;51.018;13.586;2023-03-19T23:50:38;97875.38;;;10.38;87.57
43155;BME280;34212;51.018;13.586;2023-03-19T23:55:39;97882.00;;;10.43;87.52
